aviador You're here:

K1YT Decoded Metar

in
Report Time2017-11-19 18:58:00
UTC Time2017-11-19 19:47:02
Flight Rules vfr VFR
WindCalm
Visibility9999 m
Phenomena:N/A
Clouds:N/A
Expected CloudBase > 400 ft AGL from Temp-Dew spread
CeilingNone
Temp00°C
Dew Point-1°C (93% RH)
AAT-2.1°C
QNH1014 hPa
Raw Report
METAR K1YT 191858Z AUTO 00000KT 10SM CLR 00/M01 A2993 RMK AO2 SLPNO
T00021013 $=

Extra information for K1YT:More info

Social comments